1929 NOT_NAMED (1929196N17132)


IBTrACS version v04r00. Visit IBTrACS website for data access.
Please direct all questions to the IBTrACS Q and A forum

Storm track - Intensity - Wind Radii - Intensity Data - Source Data - All data

Summary Information

Storm ID 1929196N17132
Start Jul 14 22Z
Landfall Jul 19 10Z, Jul 20 00Z
End Jul 20 22Z
ATCF IDs
Track status Best track data.

Storm track plot

Map of storm track

Intensity plots

No Intensity information for this storm


Radial wind information

No radial wind information for this storm


Position and Intensity Table

BASIN ISO_TIME_________ NATURE LAT LON
degrees north degrees east
WP 1929-07-14 22:00:00 NR 16.80 131.80
WP 1929-07-15 00:00:00 NR 16.80 131.55
WP 03:00:00 NR 16.80 131.18
WP 06:00:00 NR 16.80 130.80
WP 09:00:00 NR 16.80 130.43
WP 10:00:00 NR 16.80 130.30
WP 12:00:00 NR 16.81 130.05
WP 15:00:00 NR 16.82 129.67
WP 18:00:00 NR 16.85 129.29
WP 21:00:00 NR 16.88 128.92
WP 22:00:00 NR 16.90 128.80
WP 1929-07-16 00:00:00 NR 16.94 128.57
WP 03:00:00 NR 17.02 128.22
WP 06:00:00 NR 17.10 127.88
WP 09:00:00 NR 17.18 127.52
WP 10:00:00 NR 17.20 127.40
WP 12:00:00 NR 17.22 127.14
WP 15:00:00 NR 17.23 126.74
WP 18:00:00 NR 17.27 126.33
WP 21:00:00 NR 17.35 125.93
WP 22:00:00 NR 17.40 125.80
WP 1929-07-17 00:00:00 NR 17.52 125.53
WP 03:00:00 NR 17.75 125.15
WP 06:00:00 NR 18.05 124.79
WP 09:00:00 NR 18.38 124.49
WP 10:00:00 NR 18.50 124.40
WP 12:00:00 NR 18.74 124.24
WP 15:00:00 NR 19.14 124.04
WP 18:00:00 NR 19.56 123.90
WP 21:00:00 NR 19.97 123.82
WP 22:00:00 NR 20.10 123.80
WP 1929-07-18 00:00:00 NR 20.34 123.79
WP 03:00:00 NR 20.69 123.81
WP 06:00:00 NR 21.04 123.86
WP 09:00:00 NR 21.38 123.90
WP 10:00:00 NR 21.50 123.90
WP 12:00:00 NR 21.74 123.91
WP 15:00:00 NR 22.11 123.90
WP 18:00:00 NR 22.49 123.84
WP 21:00:00 NR 22.87 123.68
WP 22:00:00 NR 23.00 123.60
WP 1929-07-19 00:00:00 NR 23.28 123.39
WP 03:00:00 NR 23.70 122.98
WP 06:00:00 NR 24.11 122.50
WP 09:00:00 NR 24.49 121.98
WP 10:00:00 NR 24.60 121.80
WP 12:00:00 NR 24.79 121.56
WP 15:00:00 NR 25.04 121.18
WP 18:00:00 NR 25.27 120.72
WP 21:00:00 NR 25.51 120.07
WP 22:00:00 NR 25.60 119.80
WP 1929-07-20 00:00:00 NR 25.83 119.15
WP 03:00:00 NR 26.20 117.97
WP 06:00:00 NR 26.55 116.62
WP 09:00:00 NR 26.83 115.18
WP 10:00:00 NR 26.90 114.70
WP 12:00:00 NR 27.00 113.74
WP 15:00:00 NR 27.08 112.30
WP 18:00:00 NR 27.08 110.88
WP 21:00:00 NR 27.02 109.47
WP 22:00:00 NR 27.00 109.00

Source Information

Agency Information
USA
TOKYO
CMA
HKO
NEWDELHI
REUNION
BOM
NADI
WELLINGTON
DS824
TD9636 cons_worldwide_trop_cyclone_18710101-19891231-003:Line=8311
TD9635
NEUMANN
MLC

All available IBTrACS Data

SEASON BASIN SUBBASIN ISO_TIME_________ NATURE LAT LON DIST2LAND LANDFALL IFLAG USA SSHS TD9636 LAT TD9636 LON TD9636 STAGE STORM SPEED STORM DIR
Year degrees north degrees east km km 1 degrees north degrees east kts degrees
1929 WP MM 1929-07-14 22:00:00 NR 16.80 131.80 851 834 __________O___ -1 16.80 131.80 7 7 270
1929 WP MM 1929-07-15 00:00:00 NR 16.80 131.55 834 798 __________P___ -1 16.80 131.55 7 7 270
1929 WP MM 03:00:00 NR 16.80 131.18 798 759 __________P___ -1 16.80 131.18 7 7 270
1929 WP MM 06:00:00 NR 16.80 130.80 759 720 __________P___ -1 16.80 130.80 7 7 270
1929 WP MM 09:00:00 NR 16.80 130.43 720 711 __________P___ -1 16.80 130.43 7 7 271
1929 WP MM 10:00:00 NR 16.80 130.30 711 682 __________O___ -1 16.80 130.30 7 7 271
1929 WP MM 12:00:00 NR 16.81 130.05 682 654 __________P___ -1 16.81 130.05 7 7 272
1929 WP MM 15:00:00 NR 16.82 129.67 654 617 __________P___ -1 16.82 129.67 7 7 273
1929 WP MM 18:00:00 NR 16.85 129.29 617 587 __________P___ -1 16.85 129.29 7 7 275
1929 WP MM 21:00:00 NR 16.88 128.92 587 579 __________P___ -1 16.88 128.92 7 7 277
1929 WP MM 22:00:00 NR 16.90 128.80 579 561 __________O___ -1 16.90 128.80 7 7 280
1929 WP MM 1929-07-16 00:00:00 NR 16.94 128.57 561 535 __________P___ -1 16.94 128.57 7 7 282
1929 WP MM 03:00:00 NR 17.02 128.22 535 518 __________P___ -1 17.02 128.22 7 7 283
1929 WP MM 06:00:00 NR 17.10 127.88 518 495 __________P___ -1 17.10 127.88 7 7 284
1929 WP MM 09:00:00 NR 17.18 127.52 495 488 __________P___ -1 17.18 127.52 7 7 283
1929 WP MM 10:00:00 NR 17.20 127.40 488 467 __________O___ -1 17.20 127.40 7 7 276
1929 WP MM 12:00:00 NR 17.22 127.14 467 440 __________P___ -1 17.22 127.14 7 8 273
1929 WP MM 15:00:00 NR 17.23 126.74 440 405 __________P___ -1 17.23 126.74 7 8 274
1929 WP MM 18:00:00 NR 17.27 126.33 405 363 __________P___ -1 17.27 126.33 7 8 279
1929 WP MM 21:00:00 NR 17.35 125.93 363 353 __________P___ -1 17.35 125.93 7 8 285
1929 WP MM 22:00:00 NR 17.40 125.80 353 323 __________O___ -1 17.40 125.80 3 8 294
1929 WP MM 1929-07-17 00:00:00 NR 17.52 125.53 323 290 __________P___ -1 17.52 125.53 3 9 300
1929 WP MM 03:00:00 NR 17.75 125.15 290 266 __________P___ -1 17.75 125.15 3 9 307
1929 WP MM 06:00:00 NR 18.05 124.79 266 232 __________P___ -1 18.05 124.79 3 9 315
1929 WP MM 09:00:00 NR 18.38 124.49 232 221 __________P___ -1 18.38 124.49 3 9 321
1929 WP MM 10:00:00 NR 18.50 124.40 221 203 __________O___ -1 18.50 124.40 4 9 327
1929 WP MM 12:00:00 NR 18.74 124.24 203 195 __________P___ -1 18.74 124.24 4 9 332
1929 WP MM 15:00:00 NR 19.14 124.04 195 200 __________P___ -1 19.14 124.04 4 9 339
1929 WP MM 18:00:00 NR 19.56 123.90 215 215 __________P___ -1 19.56 123.90 4 9 346
1929 WP MM 21:00:00 NR 19.97 123.82 238 238 __________P___ -1 19.97 123.82 4 8 350
1929 WP MM 22:00:00 NR 20.10 123.80 246 246 __________O___ -1 20.10 123.80 4 8 353
1929 WP MM 1929-07-18 00:00:00 NR 20.34 123.79 264 273 __________P___ -1 20.34 123.79 4 7 0
1929 WP MM 03:00:00 NR 20.69 123.81 301 301 __________P___ -1 20.69 123.81 4 7 6
1929 WP MM 06:00:00 NR 21.04 123.86 326 314 __________P___ -1 21.04 123.86 4 7 7
1929 WP MM 09:00:00 NR 21.38 123.90 314 313 __________P___ -1 21.38 123.90 4 7 4
1929 WP MM 10:00:00 NR 21.50 123.90 313 300 __________O___ -1 21.50 123.90 4 7 0
1929 WP MM 12:00:00 NR 21.74 123.91 300 279 __________P___ -1 21.74 123.91 4 7 0
1929 WP MM 15:00:00 NR 22.11 123.90 279 254 __________P___ -1 22.11 123.90 4 8 355
1929 WP MM 18:00:00 NR 22.49 123.84 254 236 __________P___ -1 22.49 123.84 4 8 345
1929 WP MM 21:00:00 NR 22.87 123.68 236 225 __________P___ -1 22.87 123.68 4 8 337
1929 WP MM 22:00:00 NR 23.00 123.60 225 198 __________O___ -1 23.00 123.60 4 10 327
1929 WP MM 1929-07-19 00:00:00 NR 23.28 123.39 198 142 __________P___ -1 23.28 123.39 4 11 321
1929 WP MM 03:00:00 NR 23.70 122.98 142 75 __________P___ -1 23.70 122.98 4 12 316
1929 WP MM 06:00:00 NR 24.11 122.50 75 10 __________P___ -1 24.11 122.50 4 12 311
1929 WP MM 09:00:00 NR 24.49 121.98 10 0 __________P___ -1 24.49 121.98 4 12 308
1929 WP MM 10:00:00 NR 24.60 121.80 0 0 __________O___ -1 24.60 121.80 4 10 309
1929 WP MM 12:00:00 NR 24.79 121.56 0 0 __________P___ -1 24.79 121.56 4 9 308
1929 WP MM 15:00:00 NR 25.04 121.18 0 0 __________P___ -1 25.04 121.18 4 9 302
1929 WP MM 18:00:00 NR 25.27 120.72 45 41 __________P___ -1 25.27 120.72 4 11 295
1929 WP MM 21:00:00 NR 25.51 120.07 41 22 __________P___ -1 25.51 120.07 4 13 292
1929 WP MM 22:00:00 NR 25.60 119.80 22 0 __________O___ -1 25.60 119.80 4 18 291
1929 WP MM 1929-07-20 00:00:00 NR 25.83 119.15 0 0 __________P___ -1 25.83 119.15 4 21 290
1929 WP MM 03:00:00 NR 26.20 117.97 0 0 __________P___ -1 26.20 117.97 4 24 287
1929 WP MM 06:00:00 NR 26.55 116.62 0 0 __________P___ -1 26.55 116.62 4 26 284
1929 WP MM 09:00:00 NR 26.83 115.18 0 0 __________P___ -1 26.83 115.18 4 26 282
1929 WP MM 10:00:00 NR 26.90 114.70 0 0 __________O___ -1 26.90 114.70 2 26 278
1929 WP MM 12:00:00 NR 27.00 113.74 0 0 __________P___ -1 27.00 113.74 2 26 275
1929 WP MM 15:00:00 NR 27.08 112.30 0 0 __________P___ -1 27.08 112.30 2 25 272
1929 WP MM 18:00:00 NR 27.08 110.88 0 0 __________P___ -1 27.08 110.88 2 25 269
1929 WP MM 21:00:00 NR 27.02 109.47 0 0 __________P___ -1 27.02 109.47 2 25 267
1929 WP MM 22:00:00 NR 27.00 109.00 0 __________O___ -1 27.00 109.00 7 25 267